createdAt,value
2018-03-12T00:01:38.608Z,9.77
2018-03-12T00:04:06.834Z,7.70
2018-03-12T00:06:36.579Z,8.60
2018-03-12T00:09:05.617Z,8.53
2018-03-12T00:11:33.904Z,7.60
2018-03-12T00:14:03.037Z,9.23
2018-03-12T00:16:31.276Z,6.77
2018-03-12T00:18:59.536Z,7.10
2018-03-12T00:21:27.770Z,7.47
2018-03-12T00:23:56.794Z,7.30
2018-03-12T00:26:25.041Z,7.27
2018-03-12T00:28:55.958Z,9.13
2018-03-12T00:31:24.222Z,8.87
2018-03-12T00:33:54.612Z,8.47
2018-03-12T00:36:22.876Z,9.23
2018-03-12T00:38:51.474Z,11.00
2018-03-12T00:41:19.694Z,10.00
2018-03-12T00:43:47.947Z,9.80
2018-03-12T00:46:16.221Z,9.93
2018-03-12T00:48:44.451Z,8.97
2018-03-12T00:51:12.722Z,8.23
2018-03-12T00:53:41.761Z,7.87
2018-03-12T00:56:10.790Z,7.73
2018-03-12T00:58:39.010Z,9.03
2018-03-12T01:01:07.275Z,9.30
2018-03-12T01:03:36.322Z,10.40
2018-03-12T01:06:04.567Z,8.50
2018-03-12T01:08:32.825Z,9.37
2018-03-12T01:11:01.158Z,9.70
2018-03-12T01:13:29.418Z,10.37
2018-03-12T01:15:57.665Z,9.93
2018-03-12T01:18:28.794Z,9.63
2018-03-12T01:20:57.034Z,8.53
2018-03-12T01:23:25.286Z,8.53
2018-03-12T01:25:53.538Z,10.67
2018-03-12T01:28:21.758Z,9.50
2018-03-12T01:30:50.002Z,9.87
2018-03-12T01:33:19.013Z,10.30
2018-03-12T01:35:47.304Z,10.20
2018-03-12T01:38:15.574Z,10.30
2018-03-12T01:40:43.856Z,9.17
2018-03-12T01:43:12.127Z,12.00
2018-03-12T01:45:40.382Z,10.87
2018-03-12T01:48:09.416Z,9.67
2018-03-12T01:50:38.028Z,10.50
2018-03-12T01:53:06.265Z,9.70
2018-03-12T01:55:34.517Z,9.57
2018-03-12T01:58:03.542Z,11.13
2018-03-12T02:00:31.789Z,11.00
2018-03-12T02:03:00.833Z,12.20
2018-03-12T02:05:29.074Z,11.13
2018-03-12T02:07:57.321Z,11.40
2018-03-12T02:10:27.887Z,10.57
2018-03-12T02:12:56.148Z,10.73
2018-03-12T02:15:25.208Z,10.80
2018-03-12T02:17:53.468Z,11.20
2018-03-12T02:20:21.744Z,11.47
2018-03-12T02:22:49.982Z,12.47
2018-03-12T02:25:18.987Z,11.73
2018-03-12T02:27:47.243Z,10.57
2018-03-12T02:30:16.251Z,12.03
2018-03-12T02:32:44.514Z,12.27
2018-03-12T02:35:12.770Z,13.03
2018-03-12T02:37:41.077Z,11.93
2018-03-12T02:40:09.338Z,12.00
2018-03-12T02:42:38.350Z,12.27
2018-03-12T02:45:06.658Z,12.03
2018-03-12T02:47:34.883Z,13.97
2018-03-12T02:50:03.948Z,13.20
2018-03-12T02:52:32.176Z,12.90
2018-03-12T02:55:00.431Z,12.37
2018-03-12T02:57:29.444Z,11.80
2018-03-12T02:59:57.806Z,13.97
2018-03-12T03:02:26.132Z,14.17
2018-03-12T03:04:55.096Z,13.10
2018-03-12T03:07:24.138Z,13.80
2018-03-12T03:09:52.377Z,14.50
2018-03-12T03:12:20.638Z,12.53
2018-03-12T03:14:49.666Z,11.17
2018-03-12T03:17:17.990Z,13.63
2018-03-12T03:19:46.201Z,13.17
2018-03-12T03:22:14.450Z,12.17
2018-03-12T03:24:42.711Z,13.63
2018-03-12T03:27:10.939Z,13.30
2018-03-12T03:29:39.202Z,11.70
2018-03-12T03:32:08.186Z,13.37
2018-03-12T03:34:37.221Z,13.87
2018-03-12T03:37:05.462Z,13.33
2018-03-12T03:39:34.481Z,12.63
2018-03-12T03:42:02.785Z,12.20
2018-03-12T03:44:31.055Z,13.57
2018-03-12T03:46:59.323Z,12.70
2018-03-12T03:49:27.541Z,12.87
2018-03-12T03:51:55.813Z,11.87
2018-03-12T03:54:24.044Z,13.17
2018-03-12T03:56:52.287Z,12.63
2018-03-12T03:59:21.295Z,12.90
2018-03-12T04:01:50.354Z,12.40
2018-03-12T04:04:18.610Z,13.00
2018-03-12T04:06:46.848Z,11.67
2018-03-12T04:09:17.206Z,13.17
2018-03-12T04:11:45.477Z,12.40
2018-03-12T04:14:13.754Z,12.23
2018-03-12T04:16:41.974Z,12.23
2018-03-12T04:19:10.254Z,12.33
2018-03-12T04:21:38.969Z,11.40
2018-03-12T04:24:08.015Z,13.47
2018-03-12T04:26:36.246Z,13.33
2018-03-12T04:29:04.520Z,14.10
2018-03-12T04:31:33.554Z,12.13
2018-03-12T04:34:01.790Z,13.03
2018-03-12T04:36:30.795Z,13.77
2018-03-12T04:38:59.043Z,11.23
2018-03-12T04:41:27.297Z,13.07
2018-03-12T04:43:55.551Z,12.43
2018-03-12T04:46:23.877Z,12.47
2018-03-12T04:48:52.101Z,12.70
2018-03-12T04:51:20.330Z,12.53
2018-03-12T04:53:49.354Z,11.63
2018-03-12T04:56:17.623Z,13.30
2018-03-12T04:58:45.912Z,11.67
2018-03-12T05:01:14.151Z,11.30
2018-03-12T05:03:42.415Z,10.97
2018-03-12T05:06:10.729Z,11.23
2018-03-12T05:08:39.013Z,10.80
2018-03-12T05:11:08.009Z,10.70
2018-03-12T05:13:37.036Z,10.77
2018-03-12T05:16:05.302Z,11.17
2018-03-12T05:18:33.594Z,11.80
2018-03-12T05:21:01.847Z,11.70
2018-03-12T05:23:30.105Z,12.83
2018-03-12T05:25:58.462Z,11.30
2018-03-12T05:28:28.727Z,11.20
2018-03-12T05:30:59.286Z,13.00
2018-03-12T05:33:29.628Z,10.77
2018-03-12T05:35:58.771Z,13.20
2018-03-12T05:38:27.718Z,12.80
2018-03-12T05:40:55.961Z,11.70
2018-03-12T05:43:24.212Z,12.00
2018-03-12T05:45:53.237Z,13.40
2018-03-12T05:48:21.483Z,11.70
2018-03-12T05:53:25.072Z,11.43
2018-03-12T05:55:53.385Z,11.00
2018-03-12T05:58:21.621Z,11.30
2018-03-12T06:00:49.898Z,14.23
2018-03-12T06:03:18.154Z,13.10
2018-03-12T06:05:46.429Z,11.83
2018-03-12T06:08:14.704Z,11.30
2018-03-12T06:10:43.131Z,12.37
2018-03-12T06:13:11.422Z,13.70
2018-03-12T06:15:39.690Z,11.60
2018-03-12T06:18:08.713Z,12.13
2018-03-12T06:20:36.969Z,11.90
2018-03-12T06:23:06.108Z,13.67
2018-03-12T06:25:35.909Z,12.53
2018-03-12T06:28:04.189Z,12.60
2018-03-12T06:30:32.431Z,13.90
2018-03-12T06:33:01.474Z,13.40
2018-03-12T06:35:29.737Z,12.47
2018-03-12T06:37:57.986Z,13.17
2018-03-12T06:40:27.042Z,12.40
2018-03-12T06:42:55.361Z,12.97
2018-03-12T06:45:25.155Z,13.20
2018-03-12T06:47:53.398Z,16.97
2018-03-12T06:50:21.632Z,13.83
2018-03-12T06:52:50.670Z,12.63
2018-03-12T06:55:18.903Z,14.00
2018-03-12T06:57:51.675Z,14.53
2018-03-12T07:00:19.929Z,14.53
2018-03-12T07:02:48.177Z,13.33
2018-03-12T07:05:16.438Z,14.40
2018-03-12T07:07:44.698Z,13.63
2018-03-12T07:10:13.738Z,13.83
2018-03-12T07:12:41.965Z,13.70
2018-03-12T07:15:10.987Z,13.03
2018-03-12T07:17:39.208Z,13.07
2018-03-12T07:20:07.467Z,14.00
2018-03-12T07:22:35.701Z,14.77
2018-03-12T07:25:04.740Z,11.90
2018-03-12T07:27:33.021Z,14.50
2018-03-12T07:30:01.254Z,16.17
2018-03-12T07:32:30.865Z,14.80
2018-03-12T07:34:59.896Z,13.60
2018-03-12T07:37:28.134Z,15.40
2018-03-12T07:39:56.416Z,14.23
2018-03-12T07:42:29.369Z,14.00
2018-03-12T07:44:57.612Z,14.67
2018-03-12T07:47:25.893Z,12.97
2018-03-12T07:53:04.448Z,13.60
2018-03-12T07:55:32.706Z,13.93
2018-03-12T07:58:01.050Z,12.60
2018-03-12T08:00:30.041Z,12.90
2018-03-12T08:02:58.327Z,11.80
2018-03-12T08:08:36.346Z,11.73
2018-03-12T08:11:05.388Z,13.20
2018-03-12T08:13:33.719Z,12.40
2018-03-12T08:16:01.946Z,11.57
2018-03-12T08:18:30.194Z,13.13
2018-03-12T08:20:58.468Z,13.33
2018-03-12T08:23:26.727Z,12.00
2018-03-12T08:25:55.780Z,13.17
2018-03-12T08:28:24.031Z,12.17
2018-03-12T08:30:52.774Z,13.33
2018-03-12T08:33:21.867Z,14.33
2018-03-12T08:35:50.070Z,14.83
2018-03-12T08:38:19.112Z,14.93
2018-03-12T08:40:47.367Z,14.43
2018-03-12T08:43:17.101Z,12.60
2018-03-12T08:45:45.409Z,12.07
2018-03-12T08:48:13.702Z,11.67
2018-03-12T08:50:42.886Z,11.10
2018-03-12T08:53:12.636Z,12.40
2018-03-12T08:55:40.928Z,11.63
2018-03-12T08:58:09.274Z,10.50
2018-03-12T09:00:38.314Z,10.40
2018-03-12T09:03:06.562Z,9.80
2018-03-12T09:05:34.881Z,7.77
2018-03-12T09:08:03.187Z,7.70
2018-03-12T09:10:31.406Z,8.67
2018-03-12T09:12:59.674Z,8.40
2018-03-12T09:15:27.918Z,6.93
2018-03-12T09:17:56.948Z,7.80
2018-03-12T09:20:25.211Z,8.50
2018-03-12T09:22:53.460Z,8.13
2018-03-12T09:25:21.697Z,7.13
2018-03-12T09:27:49.955Z,8.00
2018-03-12T09:30:18.243Z,7.60
2018-03-12T09:32:46.525Z,6.77
2018-03-12T09:35:15.518Z,7.20
2018-03-12T09:37:43.811Z,7.00
2018-03-12T09:40:12.134Z,8.13
2018-03-12T09:42:41.159Z,6.83
2018-03-12T09:45:09.445Z,7.03
2018-03-12T09:47:37.702Z,7.50
2018-03-12T09:50:06.725Z,5.90
2018-03-12T09:52:34.968Z,6.47
2018-03-12T09:55:04.027Z,6.37
2018-03-12T09:57:32.275Z,6.87
2018-03-12T10:00:00.671Z,5.97
2018-03-12T10:02:28.905Z,8.80
2018-03-12T10:04:57.193Z,6.40
2018-03-12T10:07:25.452Z,7.00
2018-03-12T10:09:54.476Z,6.33
2018-03-12T10:12:22.733Z,5.30
2018-03-12T10:14:50.981Z,6.60
2018-03-12T10:17:19.238Z,5.20
2018-03-12T10:19:47.478Z,5.03
2018-03-12T10:22:15.758Z,4.80
2018-03-12T10:24:44.033Z,5.30
2018-03-12T10:27:12.305Z,4.60
2018-03-12T10:29:40.643Z,4.77
2018-03-12T10:32:11.539Z,5.80
2018-03-12T10:34:39.805Z,5.03
2018-03-12T10:37:08.050Z,4.00
2018-03-12T10:39:37.105Z,6.90
2018-03-12T10:42:05.354Z,4.77
2018-03-12T10:44:33.616Z,4.53
2018-03-12T10:47:01.877Z,4.30
2018-03-12T10:49:30.937Z,5.80
2018-03-12T10:51:59.654Z,4.97
2018-03-12T10:54:28.679Z,4.30
2018-03-12T10:56:56.922Z,4.33
2018-03-12T10:59:25.206Z,4.60
2018-03-12T11:02:04.959Z,4.60
2018-03-12T11:04:37.856Z,5.80
2018-03-12T11:07:10.854Z,7.43
2018-03-12T11:09:39.103Z,4.70
2018-03-12T11:12:08.602Z,4.30
2018-03-12T11:14:36.834Z,5.20
2018-03-12T11:17:05.103Z,4.60
2018-03-12T11:19:33.350Z,3.97
2018-03-12T11:22:02.378Z,3.43
2018-03-12T11:24:30.632Z,4.37
2018-03-12T11:26:59.640Z,4.33
2018-03-12T11:29:27.922Z,3.17
2018-03-12T11:31:56.161Z,3.60
2018-03-12T11:34:25.610Z,3.60
2018-03-12T11:36:53.821Z,3.50
2018-03-12T11:39:22.912Z,3.17
2018-03-12T11:41:51.185Z,2.73
2018-03-12T11:44:19.471Z,3.23
2018-03-12T11:46:47.699Z,2.67
2018-03-12T11:49:15.965Z,2.70
2018-03-12T11:51:44.221Z,2.43
2018-03-12T11:54:12.462Z,2.20
2018-03-12T11:56:40.759Z,1.83
2018-03-12T11:59:09.129Z,2.60
2018-03-12T12:01:37.395Z,3.97
2018-03-12T12:04:05.642Z,2.40
2018-03-12T12:06:33.899Z,2.40
2018-03-12T12:09:02.929Z,3.30
2018-03-12T12:11:31.213Z,2.97
2018-03-12T12:14:00.159Z,2.03
2018-03-12T12:16:28.394Z,2.40
2018-03-12T12:18:56.643Z,2.23
2018-03-12T12:21:25.669Z,2.07
2018-03-12T12:23:53.925Z,2.83
2018-03-12T12:26:22.185Z,2.07
2018-03-12T12:28:51.207Z,2.47
2018-03-12T12:31:19.493Z,2.83
2018-03-12T12:33:47.806Z,2.80
2018-03-12T12:36:16.046Z,1.63
2018-03-12T12:38:44.288Z,2.30
2018-03-12T12:41:13.365Z,2.27
2018-03-12T12:43:42.414Z,2.30
2018-03-12T12:46:10.756Z,1.70
2018-03-12T12:48:39.376Z,2.30
2018-03-12T12:51:07.557Z,2.00
2018-03-12T12:53:35.827Z,2.60
2018-03-12T12:56:04.109Z,2.50
2018-03-12T12:58:36.463Z,2.00
2018-03-12T13:01:04.716Z,2.70
2018-03-12T13:03:33.041Z,2.33
2018-03-12T13:06:02.088Z,3.07
2018-03-12T13:08:31.117Z,3.10
2018-03-12T13:10:59.388Z,3.70
2018-03-12T13:13:27.626Z,2.40
2018-03-12T13:15:55.919Z,2.80
2018-03-12T13:18:24.976Z,2.50
2018-03-12T13:20:53.223Z,4.60
2018-03-12T13:23:21.475Z,2.50
2018-03-12T13:25:49.757Z,3.13
2018-03-12T13:28:18.754Z,2.80
2018-03-12T13:30:47.395Z,3.00
2018-03-12T13:33:15.676Z,3.70
2018-03-12T13:35:43.980Z,6.30
2018-03-12T13:38:12.197Z,2.63
2018-03-12T13:40:40.463Z,2.20
2018-03-12T13:43:08.714Z,4.43
2018-03-12T13:45:37.430Z,3.50
2018-03-12T13:48:05.684Z,2.90
2018-03-12T13:50:33.951Z,2.30
2018-03-12T13:55:38.038Z,2.83
2018-03-12T13:58:06.341Z,3.03
2018-03-12T14:00:34.583Z,2.43
2018-03-12T14:03:02.853Z,2.30
2018-03-12T14:05:31.167Z,3.73
2018-03-12T14:07:59.443Z,2.17
2018-03-12T14:10:27.711Z,4.57
2018-03-12T14:12:55.950Z,2.23
2018-03-12T14:15:24.228Z,2.83
2018-03-12T14:17:52.674Z,9.77
2018-03-12T14:20:21.710Z,3.17
2018-03-12T14:22:49.965Z,2.00
2018-03-12T14:25:18.228Z,2.63
2018-03-12T14:27:47.273Z,1.93
2018-03-12T14:30:15.602Z,2.27
2018-03-12T14:32:43.858Z,2.60
2018-03-12T14:35:12.134Z,2.77
2018-03-12T14:37:40.426Z,1.97
2018-03-12T14:40:09.162Z,2.67
2018-03-12T14:42:37.449Z,2.73
2018-03-12T14:45:05.725Z,2.80
2018-03-12T14:47:33.950Z,1.93
2018-03-12T14:50:02.982Z,2.60
2018-03-12T14:52:32.011Z,2.00
2018-03-12T14:55:00.274Z,6.43
2018-03-12T14:57:28.586Z,7.00
2018-03-12T14:59:56.911Z,3.70
2018-03-12T15:02:25.896Z,1.90
2018-03-12T15:04:54.127Z,2.97
2018-03-12T15:07:22.412Z,2.67
2018-03-12T15:09:50.673Z,2.00
2018-03-12T15:12:19.888Z,1.90
2018-03-12T15:14:48.125Z,6.50
2018-03-12T15:17:16.362Z,2.33
2018-03-12T15:19:45.411Z,2.00
2018-03-12T15:22:13.673Z,1.43
2018-03-12T15:24:41.923Z,2.93
2018-03-12T15:27:10.983Z,2.43
2018-03-12T15:29:39.293Z,2.03
2018-03-12T15:32:08.333Z,2.50
2018-03-12T15:34:36.588Z,2.03
2018-03-12T15:37:04.827Z,1.53
2018-03-12T15:39:33.883Z,2.30
2018-03-12T15:42:02.218Z,2.23
2018-03-12T15:44:30.448Z,1.87
2018-03-12T15:46:59.602Z,2.07
2018-03-12T15:49:28.668Z,2.00
2018-03-12T15:51:58.432Z,3.73
2018-03-12T15:54:26.689Z,3.17
2018-03-12T15:56:55.772Z,2.43
2018-03-12T15:59:24.806Z,18.80
2018-03-12T16:01:53.053Z,4.10
2018-03-12T16:04:21.305Z,2.97
2018-03-12T16:06:50.480Z,3.70
2018-03-12T16:09:18.746Z,2.33
2018-03-12T16:11:47.017Z,2.90
2018-03-12T16:14:15.278Z,2.10
2018-03-12T16:16:46.081Z,2.17
2018-03-12T16:19:15.207Z,2.60
2018-03-12T16:21:43.488Z,1.67
2018-03-12T16:24:11.785Z,2.60
2018-03-12T16:26:40.138Z,2.23
2018-03-12T16:29:09.155Z,2.03
2018-03-12T16:31:37.477Z,1.57
2018-03-12T16:34:05.742Z,1.80
2018-03-12T16:36:34.024Z,3.07
2018-03-12T16:39:02.464Z,1.70
2018-03-12T16:41:30.778Z,1.70
2018-03-12T17:05:03.588Z,1.43
2018-03-12T17:07:31.865Z,2.33
2018-03-12T17:10:00.165Z,3.67
2018-03-12T17:12:28.736Z,2.80
2018-03-12T17:14:57.048Z,1.20
2018-03-12T17:17:26.081Z,1.50
2018-03-12T17:19:54.441Z,1.10
2018-03-12T17:22:23.534Z,1.23
2018-03-12T17:24:52.572Z,1.23
2018-03-12T17:27:20.885Z,1.20
2018-03-12T17:29:49.135Z,1.00
2018-03-12T17:32:17.463Z,1.50
2018-03-12T17:34:46.484Z,1.93
2018-03-12T17:37:14.924Z,1.33
2018-03-12T17:39:43.216Z,1.00
2018-03-12T17:42:11.462Z,1.30
2018-03-12T17:44:39.790Z,2.37
2018-03-12T17:47:08.795Z,1.30
2018-03-12T17:49:37.991Z,1.60
2018-03-12T17:52:06.296Z,1.83
2018-03-12T17:54:34.590Z,2.50
2018-03-12T17:57:02.884Z,2.97
2018-03-12T17:59:31.114Z,2.60
2018-03-12T18:01:59.381Z,1.47
2018-03-12T18:04:27.659Z,1.60
2018-03-12T18:06:55.964Z,2.13
2018-03-12T18:09:24.210Z,1.20
2018-03-12T18:11:53.277Z,2.23
2018-03-12T18:14:22.310Z,3.10
2018-03-12T18:16:50.550Z,2.87
2018-03-12T18:19:19.654Z,2.53
2018-03-12T18:21:47.914Z,2.70
2018-03-12T18:24:16.974Z,4.33
2018-03-12T18:26:45.194Z,2.90
2018-03-12T18:29:13.458Z,3.73
2018-03-12T18:31:42.550Z,2.13
2018-03-12T18:34:10.840Z,2.40
2018-03-12T18:36:39.858Z,3.23
2018-03-12T18:39:08.280Z,2.20
2018-03-12T18:41:37.544Z,2.53
2018-03-12T18:44:06.588Z,1.93
2018-03-12T18:46:34.872Z,1.77
2018-03-12T18:49:03.410Z,2.10
2018-03-12T18:51:32.426Z,8.90
2018-03-12T18:54:00.689Z,2.20
2018-03-12T18:56:29.025Z,2.60
2018-03-12T18:58:58.091Z,1.87
2018-03-12T19:01:26.455Z,2.07
2018-03-12T19:03:54.696Z,1.60
2018-03-12T19:06:23.702Z,3.37
2018-03-12T19:08:51.994Z,1.50
2018-03-12T19:11:20.278Z,1.50
2018-03-12T19:13:48.601Z,1.70
2018-03-12T19:16:17.665Z,1.30
2018-03-12T19:18:45.926Z,1.37
2018-03-12T19:21:14.186Z,1.87
2018-03-12T19:23:43.183Z,2.00
2018-03-12T19:26:11.509Z,2.00
2018-03-12T19:28:39.753Z,2.00
2018-03-12T19:31:08.890Z,2.10
2018-03-12T19:33:37.934Z,2.50
2018-03-12T19:36:06.241Z,1.70
2018-03-12T19:38:34.500Z,1.53
2018-03-12T19:41:03.728Z,1.40
2018-03-12T19:43:32.127Z,1.60
2018-03-12T19:46:01.175Z,1.63
2018-03-12T19:48:29.428Z,1.00
2018-03-12T19:51:05.374Z,1.53
2018-03-12T19:53:34.424Z,2.03
2018-03-12T19:56:02.694Z,1.80
2018-03-12T19:58:32.438Z,1.50
2018-03-12T20:01:00.786Z,1.67
2018-03-12T20:03:29.125Z,1.60
2018-03-12T20:05:58.196Z,2.07
2018-03-12T20:08:28.527Z,1.20
2018-03-12T20:10:58.336Z,1.67
2018-03-12T20:13:28.834Z,1.90
2018-03-12T20:16:01.790Z,1.40
2018-03-12T20:18:44.973Z,1.70
2018-03-12T20:21:13.270Z,1.73
2018-03-12T20:23:42.346Z,1.67
2018-03-12T20:26:11.479Z,1.73
2018-03-12T20:28:40.631Z,1.60
2018-03-12T20:31:08.963Z,2.10
2018-03-12T20:33:38.080Z,1.87
2018-03-12T20:36:06.351Z,1.97
2018-03-12T20:38:34.603Z,2.03
2018-03-12T20:41:02.918Z,1.80
2018-03-12T20:43:31.320Z,1.40
2018-03-12T20:45:59.626Z,1.80
2018-03-12T20:48:27.968Z,2.30
2018-03-12T20:50:56.309Z,2.40
2018-03-12T20:53:25.398Z,1.77
2018-03-12T20:55:54.376Z,1.90
2018-03-12T20:58:22.708Z,2.10
2018-03-12T21:00:51.457Z,1.90
2018-03-12T21:03:20.501Z,2.10
2018-03-12T21:05:48.832Z,2.23
2018-03-12T21:08:17.861Z,2.37
2018-03-12T21:10:46.147Z,2.90
2018-03-12T21:13:14.925Z,2.33
2018-03-12T21:15:43.201Z,2.37
2018-03-12T21:18:11.542Z,2.20
2018-03-12T21:20:39.784Z,2.57
2018-03-12T21:23:08.033Z,2.57
2018-03-12T21:25:36.339Z,2.53
2018-03-12T21:28:04.599Z,2.93
2018-03-12T21:30:32.825Z,2.70
2018-03-12T21:33:01.888Z,2.33
2018-03-12T21:35:30.143Z,2.20
2018-03-12T21:37:58.406Z,2.00
2018-03-12T21:40:26.673Z,2.17
2018-03-12T21:42:55.809Z,2.77
2018-03-12T21:45:24.058Z,2.17
2018-03-12T21:47:52.305Z,2.17
2018-03-12T21:50:20.591Z,2.70
2018-03-12T21:52:49.662Z,3.90
2018-03-12T21:55:17.906Z,4.27
2018-03-12T21:57:46.171Z,4.13
2018-03-12T22:00:14.415Z,3.33
2018-03-12T22:02:43.469Z,2.17
2018-03-12T22:05:11.768Z,2.67
2018-03-12T22:07:40.020Z,3.00
2018-03-12T22:10:08.332Z,2.70
2018-03-12T22:12:36.631Z,2.70
2018-03-12T22:15:04.855Z,2.57
2018-03-12T22:17:33.276Z,2.60
2018-03-12T22:20:02.930Z,3.20
2018-03-12T22:22:31.214Z,2.63
2018-03-12T22:24:59.457Z,2.63
2018-03-12T22:27:27.733Z,1.73
2018-03-12T22:29:56.017Z,2.30
2018-03-12T22:32:24.263Z,2.10
2018-03-12T22:34:53.278Z,2.77
2018-03-12T22:37:21.530Z,2.50
2018-03-12T22:39:49.812Z,2.20
2018-03-12T22:42:18.044Z,1.97
2018-03-12T22:44:46.369Z,2.47
2018-03-12T22:47:14.627Z,2.20
2018-03-12T22:49:42.861Z,1.90
2018-03-12T22:52:11.145Z,2.03
2018-03-12T22:54:39.404Z,2.37
2018-03-12T22:57:08.414Z,2.33
2018-03-12T22:59:36.647Z,2.90
2018-03-12T23:02:05.653Z,2.03
2018-03-12T23:04:34.664Z,2.07
2018-03-12T23:07:03.659Z,2.40
2018-03-12T23:09:32.049Z,2.13
2018-03-12T23:12:00.310Z,2.00
2018-03-12T23:14:28.583Z,2.33
2018-03-12T23:16:57.591Z,2.43
2018-03-12T23:19:25.855Z,2.10
2018-03-12T23:21:54.858Z,2.20
2018-03-12T23:24:23.202Z,2.67
2018-03-12T23:26:51.474Z,2.00
2018-03-12T23:29:19.697Z,2.07
2018-03-12T23:31:48.065Z,2.43
2018-03-12T23:34:17.056Z,2.50
2018-03-12T23:36:46.078Z,2.03
2018-03-12T23:39:14.307Z,2.23
2018-03-12T23:41:42.565Z,2.00
2018-03-12T23:44:10.842Z,2.17
2018-03-12T23:46:39.105Z,1.90
2018-03-12T23:49:07.343Z,2.10
2018-03-12T23:51:36.353Z,2.10
2018-03-12T23:54:04.604Z,2.53
2018-03-12T23:56:33.612Z,2.30
2018-03-12T23:59:02.643Z,2.60
